Time;durP1;ratioP1;P1;durP2;ratioP2;P2;SDS_P1;SDS_P2;PMS_P1;PMS_P2;Temp;Humidity;BMP_temperature;BMP_pressure;BME280_temperature;BME280_humidity;BME280_pressure;Samples;Min_cycle;Max_cycle;Signal;HPM_P1;HPM_P2
2021/01/10 00:01:47;;;;;;;155.60;33.07;;;0.80;99.90;;;;;;5074419;28;20213;-67
2021/01/10 00:04:13;;;;;;;140.27;29.87;;;0.90;99.90;;;;;;5074619;28;20204;-67
2021/01/10 00:06:41;;;;;;;124.83;27.33;;;0.90;99.90;;;;;;5035009;28;20213;-67
2021/01/10 00:09:07;;;;;;;92.73;22.17;;;0.90;99.90;;;;;;5034836;28;20198;-68
2021/01/10 00:11:34;;;;;;;90.87;22.13;;;1.00;99.90;;;;;;5014708;28;20231;-68
2021/01/10 00:14:00;;;;;;;96.27;22.53;;;0.90;99.90;;;;;;5014578;28;20203;-68
2021/01/10 00:16:27;;;;;;;122.53;29.57;;;0.90;99.90;;;;;;4975521;28;20208;-68
2021/01/10 00:18:54;;;;;;;128.83;30.97;;;1.00;99.90;;;;;;4956034;28;20240;-68
2021/01/10 00:21:20;;;;;;;123.83;29.47;;;0.90;99.90;;;;;;4917740;29;20230;-68
2021/01/10 00:23:48;;;;;;;105.77;27.63;;;0.90;99.90;;;;;;4901972;29;20692;-68
2021/01/10 00:26:15;;;;;;;94.07;24.33;;;0.90;99.90;;;;;;4915562;29;20210;-68
2021/01/10 00:28:41;;;;;;;91.53;24.03;;;1.00;99.90;;;;;;4918077;29;20669;-67
2021/01/10 00:31:08;;;;;;;83.27;23.97;;;1.00;99.90;;;;;;4917930;29;20216;-68
2021/01/10 00:33:35;;;;;;;75.23;21.37;;;1.00;99.90;;;;;;4917793;29;20764;-68
2021/01/10 00:36:01;;;;;;;69.33;21.27;;;1.00;99.90;;;;;;4917360;29;20265;-68
2021/01/10 00:38:28;;;;;;;62.00;19.57;;;1.00;99.90;;;;;;4936474;29;20337;-68
2021/01/10 00:40:56;;;;;;;69.70;20.50;;;1.10;99.90;;;;;;4952223;29;20370;-68
2021/01/10 00:43:22;;;;;;;67.17;20.50;;;1.10;99.90;;;;;;4987580;28;20259;-68
2021/01/10 00:45:49;;;;;;;63.40;20.67;;;1.10;99.90;;;;;;4994755;28;20208;-68
2021/01/10 00:48:16;;;;;;;58.10;19.23;;;1.10;99.90;;;;;;5010429;28;20210;-68
2021/01/10 00:50:44;;;;;;;58.53;20.17;;;1.10;99.90;;;;;;4975168;28;20197;-68
2021/01/10 00:53:10;;;;;;;57.10;19.40;;;1.10;99.90;;;;;;4958707;28;20197;-68
2021/01/10 00:55:40;;;;;;;56.27;18.87;;;1.10;99.90;;;;;;4955601;29;20205;-68
2021/01/10 00:58:08;;;;;;;58.03;18.17;;;1.10;99.90;;;;;;4971612;28;20271;-68
2021/01/10 01:00:36;;;;;;;59.03;18.60;;;1.10;99.90;;;;;;4955600;29;20272;-68
2021/01/10 01:03:02;;;;;;;63.67;19.10;;;1.20;99.90;;;;;;4951174;29;20240;-68
2021/01/10 01:05:29;;;;;;;54.27;18.07;;;1.20;99.90;;;;;;4917041;29;20202;-68
2021/01/10 01:07:57;;;;;;;51.40;17.20;;;1.20;99.90;;;;;;4900499;29;20211;-68
2021/01/10 01:10:34;;;;;;;49.33;17.27;;;1.20;99.90;;;;;;4934344;29;20638;-67
2021/01/10 01:13:01;;;;;;;54.40;18.13;;;1.20;99.90;;;;;;4955026;28;20205;-67
2021/01/10 01:15:28;;;;;;;57.53;17.90;;;1.20;99.90;;;;;;4955159;29;20213;-68
2021/01/10 01:17:55;;;;;;;53.90;17.50;;;1.20;99.90;;;;;;4937842;28;20360;-68
2021/01/10 01:20:22;;;;;;;60.10;18.77;;;1.20;99.90;;;;;;4972248;28;20622;-67
2021/01/10 01:22:48;;;;;;;59.33;18.77;;;1.20;99.90;;;;;;4954884;28;20225;-67
2021/01/10 01:25:15;;;;;;;52.97;17.37;;;1.20;99.90;;;;;;4955092;28;20213;-67
2021/01/10 01:27:42;;;;;;;63.00;19.90;;;1.20;99.90;;;;;;4955286;28;20299;-67
2021/01/10 01:30:09;;;;;;;60.10;19.43;;;1.20;99.90;;;;;;4954887;28;20201;-67
2021/01/10 01:32:37;;;;;;;69.07;20.17;;;1.20;99.90;;;;;;5000488;28;20256;-67
2021/01/10 01:35:06;;;;;;;76.43;20.53;;;1.20;99.90;;;;;;5013235;28;20304;-68
2021/01/10 01:37:34;;;;;;;77.53;22.27;;;1.20;99.90;;;;;;5012848;28;20265;-67
2021/01/10 01:40:01;;;;;;;58.37;18.63;;;1.20;99.90;;;;;;4994938;28;20203;-67
2021/01/10 01:42:27;;;;;;;55.33;19.30;;;1.20;99.90;;;;;;4993884;28;20227;-67
2021/01/10 01:44:54;;;;;;;66.17;20.20;;;1.20;99.90;;;;;;4977357;28;20208;-67
2021/01/10 01:47:21;;;;;;;65.33;21.77;;;1.20;99.90;;;;;;4973912;28;20205;-67
2021/01/10 01:49:49;;;;;;;65.50;21.53;;;1.20;99.90;;;;;;4973989;28;20204;-68
2021/01/10 01:52:16;;;;;;;76.37;23.67;;;1.20;99.90;;;;;;4974480;28;20665;-67
2021/01/10 01:54:44;;;;;;;74.27;24.43;;;1.10;99.90;;;;;;4974303;28;20275;-67
2021/01/10 01:57:11;;;;;;;65.17;23.77;;;1.10;99.90;;;;;;4974115;28;20325;-67
2021/01/10 01:59:38;;;;;;;64.03;22.40;;;1.00;99.90;;;;;;4973789;28;20208;-67
2021/01/10 02:02:06;;;;;;;73.33;23.27;;;1.00;99.90;;;;;;4973908;28;20228;-67
2021/01/10 02:04:39;;;;;;;67.43;23.73;;;0.90;99.90;;;;;;4973701;28;20259;-67
2021/01/10 02:07:13;;;;;;;80.93;25.53;;;0.90;99.90;;;;;;4956214;28;20718;-67
2021/01/10 02:09:43;;;;;;;82.60;26.07;;;0.80;99.90;;;;;;4973435;28;20659;-67
2021/01/10 02:12:12;;;;;;;84.67;25.23;;;0.70;99.90;;;;;;4973870;28;20192;-67
2021/01/10 02:14:50;;;;;;;79.33;24.27;;;0.60;99.90;;;;;;4973760;28;20682;-67
2021/01/10 02:17:18;;;;;;;68.67;21.63;;;0.40;99.90;;;;;;5032945;28;20625;-67
2021/01/10 02:19:53;;;;;;;70.10;20.13;;;0.30;99.90;;;;;;5032586;28;20652;-67
2021/01/10 02:22:25;;;;;;;67.27;21.80;;;0.20;99.90;;;;;;5032117;28;20655;-67
2021/01/10 02:24:53;;;;;;;59.00;19.63;;;0.00;99.90;;;;;;5008481;28;20684;-67
2021/01/10 02:27:20;;;;;;;62.27;19.77;;;-0.10;99.90;;;;;;5092389;28;20203;-67
2021/01/10 02:29:48;;;;;;;67.17;21.83;;;-0.20;99.90;;;;;;5092511;28;20200;-68
2021/01/10 02:32:18;;;;;;;63.13;20.67;;;-0.30;99.90;;;;;;5092260;28;20192;-68
2021/01/10 02:34:46;;;;;;;62.00;20.43;;;0.20;99.90;;;;;;5093174;28;20206;-68
2021/01/10 02:37:41;;;;;;;63.80;20.77;;;-0.40;99.90;;;;;;5112529;28;20336;-68
2021/01/10 02:40:14;;;;;;;68.80;21.37;;;-0.50;99.90;;;;;;5112644;28;20200;-66
2021/01/10 02:42:48;;;;;;;70.33;21.43;;;-0.60;99.90;;;;;;5072422;28;20216;-68
2021/01/10 02:45:18;;;;;;;68.17;20.63;;;-0.70;99.90;;;;;;5051669;28;20678;-67
2021/01/10 02:47:45;;;;;;;76.70;22.97;;;-0.70;99.90;;;;;;5051798;28;20260;-67
2021/01/10 02:50:17;;;;;;;74.20;21.77;;;-0.80;99.90;;;;;;5051196;28;20340;-67
2021/01/10 02:52:45;;;;;;;68.47;21.97;;;-0.80;99.90;;;;;;5051627;28;20205;-67
2021/01/10 02:55:14;;;;;;;69.70;23.77;;;-0.90;99.90;;;;;;5031368;28;20214;-67
2021/01/10 02:57:44;;;;;;;70.57;22.00;;;-0.90;99.90;;;;;;5031944;28;20198;-67
2021/01/10 03:00:13;;;;;;;74.27;24.00;;;-1.00;99.90;;;;;;5031790;28;20244;-67
2021/01/10 03:02:40;;;;;;;75.23;23.00;;;-1.00;99.90;;;;;;5031946;28;20214;-67
2021/01/10 03:05:10;;;;;;;62.70;20.33;;;-1.00;99.90;;;;;;4992332;28;20206;-67
2021/01/10 03:07:38;;;;;;;54.43;18.20;;;-1.10;99.90;;;;;;4983309;28;20201;-67
2021/01/10 03:10:05;;;;;;;62.60;19.23;;;-1.10;99.90;;;;;;4952473;29;20208;-67
2021/01/10 03:12:33;;;;;;;53.53;17.70;;;-1.20;99.90;;;;;;4915011;29;20602;-67
2021/01/10 03:15:01;;;;;;;56.47;19.27;;;-1.20;99.90;;;;;;4915517;29;20207;-67
2021/01/10 03:17:35;;;;;;;64.80;19.70;;;-1.20;99.90;;;;;;4953081;29;20205;-67
2021/01/10 03:20:05;;;;;;;59.03;18.83;;;-0.50;99.90;;;;;;4953860;29;20576;-67
2021/01/10 03:22:32;;;;;;;59.03;20.03;;;-1.30;99.90;;;;;;4953178;29;20607;-67
2021/01/10 03:24:59;;;;;;;66.07;20.37;;;-1.30;99.90;;;;;;4953030;28;20256;-68
2021/01/10 03:27:26;;;;;;;50.77;17.77;;;-1.40;99.90;;;;;;4976703;28;20207;-67
2021/01/10 03:29:53;;;;;;;50.50;18.17;;;-1.40;99.90;;;;;;4991634;28;20211;-67
2021/01/10 03:32:20;;;;;;;55.70;17.77;;;-1.40;99.90;;;;;;5010781;28;20209;-67
2021/01/10 03:34:47;;;;;;;44.40;16.90;;;-1.40;99.90;;;;;;5011704;28;20314;-67
2021/01/10 03:37:14;;;;;;;52.20;17.27;;;-1.40;99.90;;;;;;5011243;28;20590;-67
2021/01/10 03:39:41;;;;;;;45.13;16.07;;;-1.40;99.90;;;;;;5011727;28;20211;-68
2021/01/10 03:42:08;;;;;;;45.40;15.40;;;-0.90;99.90;;;;;;4991542;28;20220;-68
2021/01/10 03:44:35;;;;;;;48.67;15.87;;;-1.50;99.90;;;;;;4991957;28;20208;-68
2021/01/10 03:47:03;;;;;;;51.00;17.87;;;-1.50;99.90;;;;;;4972166;28;20207;-68
2021/01/10 03:49:29;;;;;;;58.33;19.63;;;-1.40;99.90;;;;;;4972358;28;20215;-68
2021/01/10 03:51:56;;;;;;;56.73;18.37;;;-1.40;99.90;;;;;;5005475;28;20596;-68
2021/01/10 03:54:23;;;;;;;72.23;20.97;;;-1.40;99.90;;;;;;5011095;28;20578;-68
2021/01/10 03:56:49;;;;;;;70.77;19.73;;;-1.40;99.90;;;;;;4959075;28;20205;-68
2021/01/10 03:59:16;;;;;;;67.13;20.77;;;-1.40;99.90;;;;;;4953670;29;20563;-69
2021/01/10 04:01:43;;;;;;;67.23;20.50;;;-1.30;99.90;;;;;;4953551;28;20253;-68
2021/01/10 04:04:10;;;;;;;65.13;19.10;;;-1.30;99.90;;;;;;4956417;29;20208;-67
2021/01/10 04:06:37;;;;;;;57.43;17.83;;;-1.30;99.90;;;;;;4956193;28;20207;-67
2021/01/10 04:09:04;;;;;;;52.63;18.13;;;-1.30;99.90;;;;;;4975868;28;20556;-68
2021/01/10 04:11:31;;;;;;;51.93;17.23;;;-1.30;99.90;;;;;;4959442;28;20671;-67
2021/01/10 04:13:58;;;;;;;46.17;15.93;;;-1.00;99.90;;;;;;4975584;28;20235;-67
2021/01/10 04:16:25;;;;;;;50.43;16.17;;;-1.40;99.90;;;;;;4975620;28;20201;-67
2021/01/10 04:18:51;;;;;;;42.03;15.47;;;-1.50;99.90;;;;;;4975608;28;20208;-67
2021/01/10 04:21:19;;;;;;;43.90;14.43;;;-1.50;99.90;;;;;;4975376;28;20200;-67
2021/01/10 04:23:46;;;;;;;41.40;14.27;;;-1.60;99.90;;;;;;4975186;28;20232;-68
2021/01/10 04:26:12;;;;;;;47.63;16.57;;;-1.60;99.90;;;;;;4975548;28;20598;-68
2021/01/10 04:28:39;;;;;;;50.73;17.33;;;-1.60;99.90;;;;;;4943763;28;20232;-68
2021/01/10 04:31:06;;;;;;;42.77;15.23;;;-1.60;99.90;;;;;;4975764;28;20212;-68
2021/01/10 04:33:34;;;;;;;45.27;15.83;;;-1.70;99.90;;;;;;4956395;29;20305;-68
2021/01/10 04:36:01;;;;;;;43.97;16.17;;;-1.60;99.90;;;;;;4955331;28;20333;-68
2021/01/10 04:38:29;;;;;;;36.03;13.83;;;-1.70;99.90;;;;;;4956275;29;20651;-67
2021/01/10 04:40:58;;;;;;;43.60;14.77;;;-1.70;99.90;;;;;;4955685;29;20194;-67
2021/01/10 04:43:25;;;;;;;47.60;14.87;;;-1.70;99.90;;;;;;4989587;28;20629;-68
2021/01/10 04:45:52;;;;;;;39.20;14.57;;;-1.80;99.90;;;;;;4958345;28;20734;-67
2021/01/10 04:48:21;;;;;;;40.60;14.37;;;-1.80;99.90;;;;;;4955921;29;20658;-67
2021/01/10 04:50:48;;;;;;;38.30;13.90;;;-1.80;99.90;;;;;;4939307;29;20257;-68
2021/01/10 04:53:19;;;;;;;39.80;14.60;;;-1.80;99.90;;;;;;4936306;29;20688;-68
2021/01/10 04:55:47;;;;;;;40.60;14.67;;;-1.40;99.90;;;;;;4954448;29;20256;-68
2021/01/10 04:58:14;;;;;;;34.30;13.60;;;-1.90;99.90;;;;;;4955496;29;20202;-67
2021/01/10 05:00:42;;;;;;;38.63;13.60;;;-1.90;99.90;;;;;;4991493;28;20214;-68
2021/01/10 05:03:10;;;;;;;38.03;13.63;;;-1.90;99.90;;;;;;4994171;28;20223;-68
2021/01/10 05:05:38;;;;;;;36.57;12.83;;;-1.00;99.90;;;;;;5012441;28;20199;-68
2021/01/10 05:08:09;;;;;;;36.40;13.40;;;-2.00;99.90;;;;;;5013488;28;20253;-68
2021/01/10 05:10:36;;;;;;;35.00;12.47;;;-2.00;99.90;;;;;;5013694;28;20298;-68
2021/01/10 05:13:05;;;;;;;34.73;12.67;;;-2.00;99.90;;;;;;5013050;28;20281;-67
2021/01/10 05:15:32;;;;;;;32.83;13.60;;;-2.00;99.90;;;;;;5013410;28;20261;-69
2021/01/10 05:17:59;;;;;;;36.60;13.17;;;-2.00;99.90;;;;;;5013406;28;20199;-68
2021/01/10 05:20:26;;;;;;;35.67;13.83;;;-1.90;99.90;;;;;;5013674;28;20210;-68
2021/01/10 05:22:53;;;;;;;35.23;13.00;;;-1.70;99.90;;;;;;5019568;28;20222;-68
2021/01/10 05:25:21;;;;;;;43.07;15.00;;;-1.00;99.90;;;;;;5033149;28;20210;-68
2021/01/10 05:27:49;;;;;;;40.57;14.70;;;-1.80;99.90;;;;;;5032901;28;20230;-68
2021/01/10 05:30:25;;;;;;;44.63;15.13;;;-1.20;99.90;;;;;;5034596;28;20205;-68
2021/01/10 05:32:59;;;;;;;54.50;16.60;;;-1.70;99.90;;;;;;5053395;28;20193;-68
2021/01/10 05:35:26;;;;;;;67.87;17.17;;;-1.60;99.90;;;;;;5053525;28;20201;-68
2021/01/10 05:37:57;;;;;;;76.60;18.70;;;-1.50;99.90;;;;;;5072607;28;20259;-67
2021/01/10 05:40:30;;;;;;;116.97;22.87;;;-1.50;99.90;;;;;;5073319;28;20194;-68
2021/01/10 05:43:05;;;;;;;105.17;22.80;;;-1.40;99.90;;;;;;5073082;28;20225;-67
2021/01/10 05:45:35;;;;;;;112.30;21.57;;;-1.40;99.90;;;;;;5072877;28;20216;-67
2021/01/10 05:48:12;;;;;;;126.77;24.03;;;-0.80;99.90;;;;;;5032960;28;20656;-67
2021/01/10 05:50:47;;;;;;;123.27;24.07;;;-1.30;99.90;;;;;;5000326;28;20201;-67
2021/01/10 05:53:18;;;;;;;111.27;22.03;;;-1.20;99.90;;;;;;5033177;28;20584;-67
2021/01/10 05:55:55;;;;;;;100.37;23.73;;;-1.20;99.90;;;;;;5033004;28;20203;-67
2021/01/10 05:58:23;;;;;;;112.90;23.83;;;-1.10;99.90;;;;;;5032706;28;20220;-66
2021/01/10 06:00:52;;;;;;;99.50;22.80;;;-1.00;99.90;;;;;;5032697;28;20206;-67
2021/01/10 06:03:21;;;;;;;81.73;20.30;;;-1.10;99.90;;;;;;5032355;28;20308;-67
2021/01/10 06:05:58;;;;;;;102.83;22.03;;;-1.00;99.90;;;;;;5032215;28;20237;-66
2021/01/10 06:08:29;;;;;;;97.00;21.63;;;-1.00;99.90;;;;;;5038063;28;20666;-67
2021/01/10 06:11:16;;;;;;;80.03;21.70;;;-0.90;99.90;;;;;;5052243;28;20611;-67
2021/01/10 06:13:51;;;;;;;74.53;20.50;;;-0.90;99.90;;;;;;5052691;28;20201;-67
2021/01/10 06:16:19;;;;;;;67.07;20.07;;;-0.80;99.90;;;;;;5052209;28;20189;-67
2021/01/10 06:18:48;;;;;;;61.50;18.40;;;-0.90;99.90;;;;;;5039729;28;20205;-67
2021/01/10 06:21:20;;;;;;;62.70;19.50;;;-1.00;99.90;;;;;;5051818;28;20267;-67
2021/01/10 06:23:49;;;;;;;66.10;18.00;;;-1.10;99.90;;;;;;5031727;28;20222;-67
2021/01/10 06:26:18;;;;;;;53.97;15.97;;;-1.10;99.90;;;;;;5031737;28;20364;-67
2021/01/10 06:28:57;;;;;;;43.40;13.57;;;-1.20;99.90;;;;;;5031739;28;20256;-67
2021/01/10 06:31:30;;;;;;;37.57;12.97;;;-1.20;99.90;;;;;;5031933;28;20210;-67
2021/01/10 06:33:59;;;;;;;39.37;13.67;;;-1.20;99.90;;;;;;5032211;28;20210;-68
2021/01/10 06:36:29;;;;;;;40.57;14.37;;;-1.30;99.90;;;;;;5014897;28;20312;-67
2021/01/10 06:39:10;;;;;;;40.63;13.87;;;-1.30;99.90;;;;;;5011874;28;20645;-67
2021/01/10 06:42:08;;;;;;;44.33;15.57;;;-1.40;99.90;;;;;;5037670;28;20203;-67
2021/01/10 06:44:38;;;;;;;45.67;15.53;;;-1.40;99.90;;;;;;5031213;28;20245;-67
2021/01/10 06:47:06;;;;;;;39.93;14.03;;;-1.50;99.90;;;;;;4998799;28;20206;-66
2021/01/10 06:49:34;;;;;;;36.27;14.37;;;-1.50;99.90;;;;;;5023588;28;20210;-67
2021/01/10 06:52:05;;;;;;;39.33;15.10;;;-1.50;99.90;;;;;;5019593;28;20280;-67
2021/01/10 06:54:41;;;;;;;45.57;15.90;;;-1.50;99.90;;;;;;5031427;28;20210;-67
2021/01/10 06:57:09;;;;;;;39.33;14.40;;;-1.60;99.90;;;;;;5031458;28;20218;-67
2021/01/10 06:59:55;;;;;;;42.23;15.40;;;-1.60;99.90;;;;;;5040034;28;20201;-67
2021/01/10 07:02:23;;;;;;;52.70;16.47;;;-1.50;99.90;;;;;;5031970;28;20321;-67
2021/01/10 07:05:03;;;;;;;61.20;18.53;;;-1.40;99.90;;;;;;5031618;28;20252;-67
2021/01/10 07:07:40;;;;;;;69.50;19.00;;;-1.40;99.90;;;;;;5031672;28;20233;-68
2021/01/10 07:10:26;;;;;;;73.07;20.67;;;-1.30;99.90;;;;;;5011677;28;20302;-68
2021/01/10 07:12:53;;;;;;;67.77;18.83;;;-1.20;99.90;;;;;;4999869;28;20785;-67
2021/01/10 07:15:27;;;;;;;68.70;19.00;;;-1.10;99.90;;;;;;5013570;28;20531;-68
2021/01/10 07:18:08;;;;;;;78.40;22.33;;;-1.00;99.90;;;;;;5051545;28;20247;-67
2021/01/10 07:20:37;;;;;;;87.17;24.00;;;-0.90;99.90;;;;;;5051455;28;20284;-67
2021/01/10 07:23:33;;;;;;;80.77;25.37;;;-0.80;99.90;;;;;;5013667;28;20222;-67
2021/01/10 07:26:01;;;;;;;78.90;23.87;;;-0.70;99.90;;;;;;4999601;28;20207;-67
2021/01/10 07:28:47;;;;;;;67.40;20.93;;;-0.50;99.90;;;;;;4999337;28;20210;-67
2021/01/10 07:31:19;;;;;;;109.00;30.53;;;-0.40;99.90;;;;;;4991949;28;20199;-68
2021/01/10 07:34:07;;;;;;;79.03;25.80;;;-0.30;99.90;;;;;;4991803;28;20303;-68
2021/01/10 07:36:54;;;;;;;78.33;24.60;;;-0.30;99.90;;;;;;5012061;28;20258;-68
2021/01/10 07:39:23;;;;;;;65.53;22.63;;;-0.20;99.90;;;;;;5015849;28;20207;-67
2021/01/10 07:41:51;;;;;;;63.37;21.73;;;-0.20;99.90;;;;;;5030706;28;20202;-67
2021/01/10 07:44:18;;;;;;;62.17;21.93;;;-0.10;99.90;;;;;;5015035;28;20199;-68
2021/01/10 07:46:54;;;;;;;55.90;21.37;;;0.00;99.90;;;;;;5015227;28;20206;-67
2021/01/10 07:49:24;;;;;;;53.33;18.63;;;0.10;99.90;;;;;;5015641;28;20249;-68
2021/01/10 07:51:51;;;;;;;58.13;21.57;;;0.10;99.90;;;;;;5019414;28;20233;-67
2021/01/10 07:54:38;;;;;;;51.90;19.73;;;0.30;99.90;;;;;;5054875;28;20244;-67
2021/01/10 07:57:26;;;;;;;46.03;18.73;;;0.40;99.90;;;;;;5034909;28;20255;-67
2021/01/10 08:00:06;;;;;;;56.23;20.73;;;0.60;99.90;;;;;;5015054;28;20201;-68
2021/01/10 08:02:49;;;;;;;60.10;21.07;;;0.80;99.90;;;;;;5015044;28;20720;-67
2021/01/10 08:05:18;;;;;;;59.10;19.43;;;0.80;99.90;;;;;;5015424;28;20202;-67
2021/01/10 08:07:53;;;;;;;47.10;18.97;;;1.10;99.90;;;;;;4986560;28;20203;-67
2021/01/10 08:10:21;;;;;;;48.17;18.47;;;1.20;99.90;;;;;;4995212;28;20338;-67
2021/01/10 08:12:48;;;;;;;48.13;18.57;;;1.40;99.90;;;;;;4995217;28;20204;-68
2021/01/10 08:15:17;;;;;;;45.70;17.77;;;1.50;99.90;;;;;;4957064;29;20244;-67
2021/01/10 08:17:44;;;;;;;45.07;16.93;;;1.70;99.90;;;;;;4956586;29;20272;-67
2021/01/10 08:20:12;;;;;;;51.27;18.07;;;1.80;99.90;;;;;;4937550;29;20202;-67
2021/01/10 08:22:41;;;;;;;50.37;17.70;;;1.90;99.90;;;;;;4936719;29;20580;-67
2021/01/10 08:25:19;;;;;;;48.83;17.60;;;1.90;99.90;;;;;;4936818;29;20257;-67
2021/01/10 08:27:47;;;;;;;51.57;17.37;;;2.10;99.90;;;;;;4949724;29;20220;-67
2021/01/10 08:30:15;;;;;;;56.43;21.20;;;2.20;99.90;;;;;;4920747;29;20210;-68
2021/01/10 08:32:42;;;;;;;57.53;20.20;;;2.30;99.90;;;;;;4936669;29;20592;-68
2021/01/10 08:35:10;;;;;;;58.60;21.33;;;2.40;99.90;;;;;;4936765;29;20210;-68
2021/01/10 08:37:37;;;;;;;53.30;21.30;;;2.60;99.90;;;;;;4936874;29;20240;-68
2021/01/10 08:40:08;;;;;;;59.43;21.93;;;2.60;99.90;;;;;;4975195;28;20204;-67
2021/01/10 08:42:35;;;;;;;66.47;24.40;;;2.70;99.90;;;;;;4963380;28;20570;-67
2021/01/10 08:45:15;;;;;;;64.83;22.47;;;2.80;99.90;;;;;;4994532;28;20215;-68
2021/01/10 08:47:43;;;;;;;56.60;21.47;;;2.90;99.90;;;;;;5013475;28;20213;-68
2021/01/10 08:50:10;;;;;;;64.20;21.90;;;3.10;99.90;;;;;;5013449;28;20242;-68
2021/01/10 08:52:54;;;;;;;61.43;22.23;;;3.10;99.90;;;;;;5014415;28;20225;-68
2021/01/10 08:55:37;;;;;;;49.27;19.77;;;3.10;99.90;;;;;;5010653;28;20215;-67
2021/01/10 08:58:07;;;;;;;67.10;22.60;;;3.00;99.90;;;;;;5011259;28;20210;-69
2021/01/10 09:00:34;;;;;;;68.30;23.50;;;3.00;99.90;;;;;;5020533;28;20211;-68
2021/01/10 09:03:12;;;;;;;67.57;22.07;;;3.00;99.90;;;;;;5013257;28;20233;-68
2021/01/10 09:05:39;;;;;;;62.23;21.20;;;3.00;99.90;;;;;;5014238;28;20213;-69
2021/01/10 09:08:12;;;;;;;56.00;19.87;;;3.10;99.90;;;;;;5014009;28;20214;-69
2021/01/10 09:10:51;;;;;;;57.10;19.13;;;3.20;99.90;;;;;;4997677;28;20657;-68
2021/01/10 09:13:22;;;;;;;46.97;17.03;;;3.30;99.90;;;;;;5014012;28;20218;-68
2021/01/10 09:15:53;;;;;;;48.13;15.73;;;3.40;99.90;;;;;;5014312;28;20326;-69
2021/01/10 09:18:23;;;;;;;38.83;14.67;;;3.50;99.90;;;;;;5030384;28;20210;-69
2021/01/10 09:20:53;;;;;;;42.63;14.10;;;3.60;99.90;;;;;;5033423;28;20603;-70
2021/01/10 09:23:20;;;;;;;36.53;13.43;;;3.70;99.90;;;;;;5033207;28;20226;-69
2021/01/10 09:25:48;;;;;;;34.83;13.60;;;3.80;99.90;;;;;;5033650;28;20274;-69
2021/01/10 09:28:16;;;;;;;41.43;13.90;;;3.80;99.90;;;;;;5019600;28;20205;-69
2021/01/10 09:30:44;;;;;;;47.07;15.13;;;3.90;99.90;;;;;;5053842;28;20255;-69
2021/01/10 09:33:11;;;;;;;42.37;14.70;;;3.90;99.90;;;;;;5073032;28;20201;-68
2021/01/10 09:35:44;;;;;;;39.10;15.07;;;3.90;99.90;;;;;;5015151;28;20202;-68
2021/01/10 09:38:12;;;;;;;48.17;17.40;;;3.90;99.90;;;;;;5032911;28;20206;-69
2021/01/10 09:40:59;;;;;;;51.17;18.20;;;3.90;99.90;;;;;;5013050;28;20210;-69
2021/01/10 09:43:40;;;;;;;45.17;16.33;;;3.90;99.90;;;;;;4974040;28;20594;-69
2021/01/10 09:46:26;;;;;;;32.20;13.63;;;3.90;99.90;;;;;;4954892;29;20299;-69
2021/01/10 09:48:55;;;;;;;31.93;12.97;;;3.90;99.90;;;;;;4955081;29;20205;-69
2021/01/10 09:51:22;;;;;;;38.37;15.63;;;4.00;99.90;;;;;;4935465;29;20205;-69
2021/01/10 09:53:48;;;;;;;31.77;13.33;;;4.00;99.90;;;;;;4935570;29;20220;-69
2021/01/10 09:56:46;;;;;;;40.07;14.50;;;3.90;99.90;;;;;;4935569;29;20214;-69
2021/01/10 09:59:35;;;;;;;29.90;13.40;;;3.90;99.90;;;;;;4851634;29;20206;-69
2021/01/10 10:02:09;;;;;;;36.83;14.47;;;3.80;99.90;;;;;;4842007;29;20213;-70
2021/01/10 10:04:36;;;;;;;36.63;13.80;;;3.70;99.90;;;;;;4854452;29;20219;-70
2021/01/10 10:07:03;;;;;;;29.43;12.20;;;3.60;99.90;;;;;;4860079;29;20257;-70
2021/01/10 10:09:46;;;;;;;27.90;10.93;;;3.50;99.90;;;;;;4837677;29;20209;-68
2021/01/10 10:12:13;;;;;;;25.43;10.83;;;3.40;99.90;;;;;;4830729;29;20284;-69
2021/01/10 10:14:50;;;;;;;26.17;10.40;;;3.30;99.90;;;;;;4897859;29;20293;-69
2021/01/10 10:17:16;;;;;;;22.67;9.10;;;3.20;99.90;;;;;;4876146;29;20198;-69
2021/01/10 10:19:43;;;;;;;20.27;9.33;;;3.10;99.90;;;;;;4916404;29;20254;-69
2021/01/10 10:22:22;;;;;;;28.73;10.77;;;3.10;99.90;;;;;;4935341;29;20264;-69
2021/01/10 10:24:49;;;;;;;27.93;10.10;;;3.00;99.90;;;;;;4935403;29;20205;-69
2021/01/10 10:27:15;;;;;;;30.77;11.50;;;2.90;99.90;;;;;;4935016;29;20280;-70
2021/01/10 10:29:43;;;;;;;27.40;11.67;;;2.90;99.90;;;;;;4935738;29;20513;-68
2021/01/10 10:32:10;;;;;;;30.50;11.93;;;2.90;99.90;;;;;;4953929;29;20215;-68
2021/01/10 10:34:37;;;;;;;30.43;12.40;;;2.80;99.90;;;;;;4954099;29;20236;-69
2021/01/10 10:37:06;;;;;;;35.13;13.57;;;2.80;99.90;;;;;;4982737;28;20231;-69
2021/01/10 10:39:35;;;;;;;32.27;13.13;;;2.80;99.90;;;;;;4993301;28;20203;-69
2021/01/10 10:42:01;;;;;;;33.70;12.47;;;2.70;99.90;;;;;;4992984;28;20590;-69
2021/01/10 10:44:28;;;;;;;42.70;14.53;;;2.70;99.90;;;;;;4992924;28;20215;-68
2021/01/10 10:46:56;;;;;;;39.03;14.20;;;2.70;99.90;;;;;;4972953;28;20204;-68
2021/01/10 10:49:22;;;;;;;41.77;13.23;;;2.70;99.90;;;;;;4990641;28;20262;-68
2021/01/10 10:51:49;;;;;;;36.37;12.57;;;2.70;99.90;;;;;;5011121;28;20247;-68
2021/01/10 10:54:16;;;;;;;32.83;11.60;;;2.70;99.90;;;;;;5012417;28;20237;-68
2021/01/10 10:56:43;;;;;;;31.77;11.07;;;2.80;99.90;;;;;;5012628;28;20248;-68
2021/01/10 10:59:10;;;;;;;28.70;10.33;;;2.80;99.90;;;;;;5012135;28;20766;-68
2021/01/10 11:01:38;;;;;;;28.70;10.87;;;2.90;99.90;;;;;;4992889;28;20500;-68
2021/01/10 11:04:06;;;;;;;24.70;10.23;;;2.90;99.90;;;;;;4992940;28;20223;-68
2021/01/10 11:06:32;;;;;;;24.87;10.10;;;2.90;99.90;;;;;;4992302;28;20218;-69
2021/01/10 11:08:59;;;;;;;23.03;8.67;;;2.90;99.90;;;;;;5044313;28;20758;-69
2021/01/10 11:11:37;;;;;;;22.87;9.47;;;2.90;99.90;;;;;;5050638;28;20283;-69
2021/01/10 11:14:04;;;;;;;21.47;8.63;;;2.90;99.90;;;;;;5032187;28;20202;-69
2021/01/10 11:16:32;;;;;;;21.93;8.67;;;2.90;99.90;;;;;;5031635;28;20202;-68
2021/01/10 11:18:59;;;;;;;19.53;8.20;;;2.90;99.90;;;;;;5050254;28;20198;-69
2021/01/10 11:21:31;;;;;;;18.47;8.13;;;2.80;99.90;;;;;;5015072;28;20213;-68
2021/01/10 11:23:58;;;;;;;16.17;7.17;;;2.80;99.90;;;;;;5011678;28;20641;-69
2021/01/10 11:26:25;;;;;;;13.93;6.87;;;2.80;99.90;;;;;;5012224;28;20207;-69
2021/01/10 11:28:52;;;;;;;18.63;6.33;;;2.80;99.90;;;;;;5011727;28;20245;-69
2021/01/10 11:31:19;;;;;;;19.17;7.60;;;2.80;99.90;;;;;;5051280;28;20201;-69
2021/01/10 11:33:45;;;;;;;22.63;8.30;;;2.80;99.90;;;;;;5071133;28;20230;-69
2021/01/10 11:36:13;;;;;;;22.60;8.60;;;2.70;99.90;;;;;;5071156;28;20228;-69
2021/01/10 11:38:41;;;;;;;24.57;9.07;;;2.60;99.90;;;;;;5071387;28;20231;-68
2021/01/10 11:41:10;;;;;;;21.63;8.70;;;2.60;99.90;;;;;;5071303;28;20208;-69
2021/01/10 11:43:37;;;;;;;24.97;8.83;;;2.60;99.90;;;;;;5071188;28;20272;-69
2021/01/10 11:46:04;;;;;;;20.10;8.30;;;2.60;99.90;;;;;;5108163;28;20313;-69
2021/01/10 11:48:31;;;;;;;22.23;8.73;;;2.70;99.90;;;;;;5111691;28;20272;-69
2021/01/10 11:50:58;;;;;;;23.50;9.87;;;2.70;99.90;;;;;;5112377;28;20196;-69
2021/01/10 11:53:25;;;;;;;24.83;10.07;;;2.70;99.90;;;;;;5071487;28;20508;-69
2021/01/10 11:55:53;;;;;;;22.87;9.00;;;2.70;99.90;;;;;;5051122;28;20202;-68
2021/01/10 11:58:19;;;;;;;24.93;9.63;;;2.90;99.90;;;;;;5050902;28;20584;-69
2021/01/10 12:00:49;;;;;;;28.03;10.70;;;3.10;99.90;;;;;;5071212;28;20224;-69
2021/01/10 12:03:16;;;;;;;26.10;10.43;;;3.20;99.90;;;;;;5015240;28;20608;-69
2021/01/10 12:05:43;;;;;;;25.03;9.50;;;3.50;99.90;;;;;;5013496;28;20218;-68
2021/01/10 12:08:10;;;;;;;24.13;9.10;;;3.60;99.90;;;;;;4994745;28;20222;-69
2021/01/10 12:10:37;;;;;;;15.17;7.43;;;3.70;99.90;;;;;;5011004;28;20211;-68
2021/01/10 12:13:05;;;;;;;14.63;6.30;;;3.80;99.90;;;;;;5011383;28;20205;-68
2021/01/10 12:15:33;;;;;;;14.43;6.00;;;3.90;99.90;;;;;;4991546;28;20246;-69
2021/01/10 12:18:00;;;;;;;12.70;5.97;;;4.00;99.90;;;;;;5008742;28;20234;-68
2021/01/10 12:20:26;;;;;;;9.30;4.80;;;4.00;99.90;;;;;;5011465;28;20207;-68
2021/01/10 12:22:53;;;;;;;8.63;4.93;;;4.00;99.90;;;;;;5012295;28;20222;-68
2021/01/10 12:25:20;;;;;;;8.03;4.20;;;4.00;99.90;;;;;;4977892;28;20700;-70
2021/01/10 12:27:47;;;;;;;7.80;3.80;;;4.00;99.90;;;;;;4975438;28;20328;-69
2021/01/10 12:30:15;;;;;;;7.83;3.90;;;4.10;99.90;;;;;;4975396;28;20205;-69
2021/01/10 12:32:42;;;;;;;6.37;3.83;;;4.10;99.90;;;;;;5014514;28;20227;-69
2021/01/10 12:35:10;;;;;;;15.07;5.67;;;4.20;99.90;;;;;;4981171;28;20275;-69
2021/01/10 12:37:38;;;;;;;15.77;6.97;;;4.20;99.90;;;;;;4979574;28;20231;-69
2021/01/10 12:40:07;;;;;;;14.87;6.80;;;4.30;99.90;;;;;;4994833;28;20220;-69
2021/01/10 12:42:34;;;;;;;17.20;6.50;;;4.30;99.90;;;;;;4994656;28;20625;-69
2021/01/10 12:45:01;;;;;;;20.13;6.90;;;4.30;99.90;;;;;;4994578;28;20315;-70
2021/01/10 12:47:28;;;;;;;16.57;7.30;;;4.30;99.90;;;;;;4989740;28;20209;-68